Nearby METAR Reports

 

KIAG - Niagara Falls, New York, USA
Distance from station: W 12mi, 20km
Updated: 07/03/2022 12:53pm
Clear
Clear
 Wind from varies
Wind: varies 5 mph , 7 km/h
Temperature: 75°F , 24°C
Dew Point: 48°F , 9°C
Humidity: 39%
Barometer: 1020.7 hPa
Clouds: Clear
Visibility: 10 miles , 16 km
2022/07/03 16:53 KIAG 031653Z VRB04KT 10SM CLR 24/09 A3014 RMK AO2 SLP204 T02390089 $
KBUF - Buffalo/Cheektow, New York, USA
Distance from station: S 13mi, 21km
Updated: 07/03/2022 12:54pm
Few Clouds
Few Clouds
 Wind from NNW
Wind: NNW 8 mph , 13 km/h
Temperature: 75°F , 24°C
Dew Point: 46°F , 8°C
Humidity: 36%
Barometer: 1020.7 hPa
Clouds: Few Clouds
Visibility: 10 miles , 16 km
Cloud details: Few Clouds 6000 ft
Few Clouds 17000 ft
2022/07/03 16:54 KBUF 031654Z 34007KT 10SM FEW060 FEW170 24/08 A3014 RMK AO2 SLP204 T02390083
 
KROC - Rochester, New York, USA
Distance from station: E 51mi, 82km
Updated: 07/03/2022 12:54pm
Clear
Clear
 Wind from NNE
Wind: NNE 9 mph , 15 km/h
Temperature: 73°F , 23°C
Dew Point: 48°F , 9°C
Humidity: 41%
Barometer: 1020.7 hPa
Clouds: Clear
Visibility: 10 miles , 16 km
2022/07/03 16:54 KROC 031654Z 02008KT 10SM CLR 23/09 A3014 RMK AO2 SLP206 T02330094
CYSN - St. Catharines A, Ontario, Canada
Distance from station: WNW 25mi, 40km
Updated: 07/03/2022 1:00pm
Few Clouds
Few Clouds
 Wind from W
Wind: W 6 mph , 9 km/h
Temperature: 75°F , 24°C
Dew Point: 50°F , 10°C
Humidity: 41%
Barometer: 1020.7 hPa
Clouds: Few Clouds
Visibility: 15 miles , 24 km
Cloud details: Few Clouds 5000 ft
Few Clouds 25000 ft
2022/07/03 17:00 CYSN 031700Z 28005KT 240V020 15SM FEW050 FEW250 24/10 A3014 RMK CU1CI1 CU TR CI TR SLP207 DENSITY ALT 1200FT
 
KOLE - Olean, New York, USA
Distance from station: SSE 63mi, 102km
Updated: 07/03/2022 1:35pm
Clear
Clear
 Wind from W
Wind: W 7 mph , 11 km/h
Temperature: 70°F , 21°C
Dew Point: 39°F , 4°C
Humidity: 33%
Barometer: 1022 hPa
Clouds: Clear
Visibility: 10 miles , 16 km
2022/07/03 17:35 KOLE 031735Z AUTO 28006KT 10SM CLR 21/04 A3018 RMK AO2
KJHW - Jamestown, New York, USA
Distance from station: SSW 74mi, 119km
Updated: 07/03/2022 12:56pm
Clear
Clear
 Wind from NNE
Wind: NNE 9 mph , 15 km/h
Temperature: 72°F , 22°C
Dew Point: 37°F , 3°C
Humidity: 29%
Barometer: 1022.4 hPa
Clouds: Clear
Visibility: 10 miles , 16 km
2022/07/03 16:56 KJHW 031656Z AUTO 02008KT 10SM CLR 22/03 A3019 RMK AO2 SLP220 T02170028
 
CWWZ - Port Weller (mar, Ontario, Canada
Distance from station: WNW 28mi, 45km
Updated: 07/03/2022 1:00pm

 Wind from W
Wind: W 3 mph , 6 km/h
Temperature: 70°F , 21°C
Dew Point: 54°F , 12°C
Humidity: 57%
2022/07/03 17:00 CWWZ 031700Z AUTO 27003KT 21/12 RMK AO1 SLP215 T02100116 50001
CWPC - Port Colborne(Au, Ontario, Canada
Distance from station: WSW 33mi, 53km
Updated: 07/03/2022 1:00pm

 Wind from SW
Wind: SW 14 mph , 22 km/h
Temperature: 66°F , 19°C
Dew Point: 52°F , 11°C
Humidity: 60%
2022/07/03 17:00 CWPC 031700Z AUTO 22012KT 19/11 RMK AO1 SLP219 T01910110 50000
 
CXVN - Vineland (au8), Ontario, Canada
Distance from station: W 36mi, 58km
Updated: 07/03/2022 1:00pm

 Wind from NNE
Wind: NNE 3 mph , 6 km/h
Temperature: 72°F , 22°C
Dew Point: 46°F , 8°C
Humidity: 41%
2022/07/03 17:00 CXVN 031700Z AUTO 03003KT 22/08 RMK AO1 SLP206 T02190082 50000
CYTZ - Toronto Il Vor, Ontario, Canada
Distance from station: NW 50mi, 81km
Updated: 07/03/2022 1:00pm
Clear
Clear
 Wind from SSW
Wind: SSW 8 mph , 13 km/h
Temperature: 64°F , 18°C
Dew Point: 54°F , 12°C
Humidity: 68%
Barometer: 1020.3 hPa
Clouds: Clear
Visibility: 9 miles , 14 km
2022/07/03 17:00 CYTZ 031700Z AUTO 20007KT 180V270 9SM CLR 18/12 A3013 RMK SLP205 DENSITY ALT 500FT
 
CXTO - Toronto City, Ontario, Canada
Distance from station: NW 52mi, 84km
Updated: 07/03/2022 1:00pm

 
Temperature: 72°F , 22°C
Dew Point: 50°F , 10°C
Humidity: 47%
2022/07/03 17:00 CXTO 031700Z AUTO 22/10 RMK AO1 SLP207 T02240098 50001
KDKK - Dunkirk, New York, USA
Distance from station: SW 52mi, 84km
Updated: 07/03/2022 12:53pm
Clear
Clear
 Wind from varies
Wind: varies 3 mph , 6 km/h
Temperature: 73°F , 23°C
Dew Point: 48°F , 9°C
Humidity: 41%
Barometer: 1021.7 hPa
Clouds: Clear
Visibility: 10 miles , 16 km
2022/07/03 16:53 KDKK 031653Z AUTO VRB03KT 10SM CLR 23/09 A3017 RMK AO2 SLP213 T02280089 $
 
CYOO - Oshawa, Ontario, Canada
Distance from station: N 56mi, 90km
Updated: 07/03/2022 1:00pm
Clear
Clear
 Wind from varies
Wind: varies 7 mph , 11 km/h
Temperature: 73°F , 23°C
Dew Point: 52°F , 11°C
Humidity: 47%
Barometer: 1020 hPa
Clouds: Clear
Visibility: 9 miles , 14 km
2022/07/03 17:00 CYOO 031700Z AUTO VRB06KT 9SM CLR 23/11 A3012 RMK SLP201 DENSITY ALT 1300FT
CWWB - Burlington Piers, Ontario, Canada
Distance from station: WNW 56mi, 91km
Updated: 07/03/2022 1:00pm

 Wind from E
Wind: E 13 mph , 20 km/h
Temperature: 63°F , 17°C
Dew Point: 52°F , 11°C
Humidity: 68%
2022/07/03 17:00 CWWB 031700Z AUTO 09011KT 17/11 RMK AO1 SLP204 T01730114 58007
 
CYYZ - Toronto/Pearson, Ontario, Canada
Distance from station: NW 60mi, 96km
Updated: 07/03/2022 1:00pm
Few Clouds
Few Clouds
 Wind from W
Wind: W 6 mph , 9 km/h
Temperature: 75°F , 24°C
Dew Point: 46°F , 8°C
Humidity: 36%
Barometer: 1020 hPa
Clouds: Few Clouds
Visibility: 15 miles , 24 km
Cloud details: Few Clouds 5000 ft
Few Clouds 25000 ft
2022/07/03 17:00 CYYZ 031700Z 27005KT 240V360 15SM FEW050 FEW250 24/08 A3012 RMK CF1CI1 CF TR CI TR SLP200 DENSITY ALT 1600FT
CYKZ - Toronto Buttonvi, Ontario, Canada
Distance from station: NW 62mi, 99km
Updated: 01/03/2019 4:00am
NOT Current
Partly cloudy
Partly cloudy
 Wind from WSW
Wind: WSW 5 mph , 7 km/h
Temperature: 27°F , -3°C
Wind Chill: 21°F , -6°C
Dew Point: 23°F , -5°C
Humidity: 86%
Barometer: 1010.8 hPa
Clouds: Partly cloudy
Visibility: 15 miles , 24 km
Cloud details: Partly cloudy 4000 ft
2019/01/03 09:00 CYKZ 030900Z 25004KT 15SM SCT040 M03/M05 A2985 RMK SC3 LAST STFD OBS FAREWELL SLP118
 
CXHM - Hamilton Rbg Cs, Ontario, Canada
Distance from station: W 62mi, 100km
Updated: 07/03/2022 1:00pm

 Wind from WSW
Wind: WSW 3 mph , 6 km/h
Temperature: 77°F , 25°C
Dew Point: 50°F , 10°C
Humidity: 39%
2022/07/03 17:00 CXHM 031700Z AUTO 25003KT 25/10 RMK AO1 SLP198 T02500100 58008
KDSV - Dansville, New York, USA
Distance from station: SE 62mi, 100km
Updated: 07/03/2022 12:54pm
Clear
Clear
 Wind from NNW
Wind: NNW 13 mph , 20 km/h
Temperature: 77°F , 25°C
Dew Point: 48°F , 9°C
Humidity: 36%
Barometer: 1020.7 hPa
Clouds: Clear
Visibility: 10 miles , 16 km
2022/07/03 16:54 KDSV 031654Z AUTO 34011KT 10SM CLR 25/09 A3014 RMK AO2 SLP210 T02500089
 
CYHM - Hamilton Airport, Ontario, Canada
Distance from station: W 63mi, 101km
Updated: 07/03/2022 1:00pm
Few Clouds
Few Clouds
 Wind from W
Wind: W 9 mph , 15 km/h
Temperature: 75°F , 24°C
Dew Point: 50°F , 10°C
Humidity: 41%
Barometer: 1020.7 hPa
Clouds: Few Clouds
Visibility: 15 miles , 24 km
Cloud details: Few Clouds 6000 ft
Few Clouds 11000 ft
2022/07/03 17:00 CYHM 031700Z 28008KT 210V310 15SM FEW060 FEW110 24/10 A3014 RMK CU1AC1 CU TR AC TR SLP208 DENSITY ALT 1700FT
CWNC - Cobourg (mars), Ontario, Canada
Distance from station: NNE 63mi, 102km
Updated: 07/03/2022 1:00pm

 Wind from WSW
Wind: WSW 13 mph , 20 km/h
Temperature: 64°F , 18°C
Dew Point: 57°F , 14°C
Humidity: 78%
2022/07/03 17:00 CWNC 031700Z AUTO 24011KT 18/14 RMK AO1 SLP198 T01840140 50003